Pagina principale
METAR-TAF:

METAR-TAF

Aeroporti :

Užice, Serbia

latitudine: 43-53-56N, longitudine: 19-41-52E, altezza: 904 m

Osservazione

Il bollettino è stato emesso 36 minuti fa, alle 10:00 UTC
Vento 5 kt da est, variando fra nord-est e est/sud-est
Temperature 17°C
Umidità 48%
Pressione 1022 hPa
Visibilità 10 km o più
nessuna nube inferiore a 1500 m e nessun cumulonembo

METAR: LYUZ 171000Z 08005KT 050V120 CAVOK 17/06 Q1022

Ora: 12:36 (10:36 UTC)

Previsione

Il bollettino è stato emesso 5 ore e 36 minuti fa, alle 05:00 UTC
Previsione valida dal 17 alle 06 UTC al 18 alle 06 UTC
Vento 5 kt da est
Visibilità 10 km o più
nessuna nube inferiore a 1500 m e nessun cumulonembo

TAF: LYUZ 170500Z 1706/1806 09005KT CAVOK TX17/1712Z TN07/1805Z

Osservazioni e previsioni meteorologiche di più di 4000 aeroporti (messaggi METAR e TAF).

Le stazioni disponibili sono rappresentate dai dischi gialli e rossi sulla carta.

Puntare il mouse per vedere il nome della stazione.

Clicca sopra per visualizzare le osservazioni e previsioni meteorologiche.

Per cambiare la mappa : fare clic sui pulsanti verdi con una croce nera per ingrandire, il pulsante verde con un trattino per diminuire, o sulla freccia verde per le mappe adiacenti.


METAR-TAF: